Thunder radar more information blitzortung!


Rain radar  rain snow radar



Ingen spesiell oppmerksomhet nødvendig.    Det er ingen advarsler

Nearby METAR Reports

   
ENZV - Stavanger
Oppdatert: Mar 4 2021 4:20 pm
Klart  
Klart  
   Vind: Nord 7.2 m/s
Vind: Nord 7.2 m/s
Temperatur: 5°C
Wind Chill: 1°C
Duggpunkt: -6°C
Luftfuktighet: 45%
Barometer: 1025 hPa
Sikt: More than 10 km
Detaljer skyer: Klart ft
ENZV 041520Z 35014KT CAVOK 05/M06 Q1025 NOSIG
ENCN - Kristiansand
Oppdatert: Mar 4 2021 4:20 pm
Klart  
Klart  
   Vind: Sør 3.6 m/s
Vind: Sør 3.6 m/s
Temperatur: 4°C
Wind Chill: 1°C
Duggpunkt: -4°C
Luftfuktighet: 56%
Barometer: 1022 hPa
Sikt: More than 10 km
Detaljer skyer: Klart ft
ENCN 041520Z 18007KT CAVOK 04/M04 Q1022
ENBR - Bergen
Oppdatert: Mar 4 2021 4:20 pm
Delvis overskyet  
Delvis overskyet  
   Vind: NNV 6.2 m/s
Vind: NNV 6.2 m/s
Temperatur: 4°C
Wind Chill: -1°C
Duggpunkt: -3°C
Luftfuktighet: 61%
Barometer: 1026 hPa
Skyer: Partly Cloudy
Sikt: More than 10 km
Detaljer skyer: Delvis overskyet 3600 ft
ENBR 041520Z 34012KT 300V360 9999 SCT036 04/M03 Q1026 NOSIG RMK WIND 1200FT 34017KT
ENGM - Oslo
Oppdatert: Mar 4 2021 4:20 pm
Klart  
Klart  
   Vind: Nord 5.1 m/s
Vind: Nord 5.1 m/s
Temperatur: 3°C
Wind Chill: -1°C
Duggpunkt: -10°C
Luftfuktighet: 38%
Barometer: 1019 hPa
Sikt: More than 10 km
Detaljer skyer: Klart ft
ENGM 041520Z 36010KT CAVOK 03/M10 Q1019 NOSIG
ENVA - Trondheim
Oppdatert: Mar 4 2021 4:20 pm
Snø, For det meste Overskyet  
Snø, For det meste Overskyet  
   Vind: VNV 11.3 m/s
Vind: VNV 11.3 m/s
Temperatur: 0°C
Wind Chill: -7°C
Duggpunkt: -1°C
Luftfuktighet: 93%
Barometer: 1020 hPa
Skyer: Mostly Cloudy
Sikt: 5 km
Detaljer skyer: Noen skyer 200 ft,
Delvis overskyet 1500 ft,
For det meste Overskyet 2000 ft
ENVA 041520Z 29022KT 5000 SN FEW002 SCT015CB BKN020 00/M01 Q1020 TEMPO 0600 SHSNGS VV003 RMK WIND 670FT 30025KT
ENTC - Tromsø
Oppdatert: Mar 4 2021 4:20 pm
Lokale byger, Delvis overskyet  
Lokale byger, Delvis overskyet  
   Vind: ØSØ 1.5 m/s
Vind: ØSØ 1.5 m/s
Temperatur: -4°C
Wind Chill: -7°C
Duggpunkt: -7°C
Luftfuktighet: 80%
Barometer: 1013 hPa
Skyer: Partly Cloudy
Sikt: More than 10 km
Detaljer skyer: Delvis overskyet 2000 ft,
Delvis overskyet 4800 ft
ENTC 041520Z 12003KT 350V160 9999 VCSH SCT020 SCT048 M04/M07 Q1013 TEMPO 2000 -SHSN VV012 RMK WIND 2600FT 34023KT

Script utviklet av  Saratoga-weather.org Tilpasset for tamplaten av  Weerstation Leuven

Du finner vår vær info også på:

European Weather Network

WeatherCloud

Weather Underground

AWEKAS

HAMweather, WeatherForYou, PWS Weather

Utrustning vi bruker:

vær-station
Davis VP2

vær-programmet
Weather Display

Davis VP2

Weather Display